Time;durP1;ratioP1;P1;durP2;ratioP2;P2;SDS_P1;SDS_P2;PMS_P1;PMS_P2;Temp;Humidity;BMP_temperature;BMP_pressure;BME280_temperature;BME280_humidity;BME280_pressure;Samples;Min_cycle;Max_cycle;Signal;HPM_P1;HPM_P2
2022/05/21 00:00:00;;;;;;;4.45;2.30;;;22.80;99.90;;;;;;4194586;28;20241;-83
2022/05/21 00:02:04;;;;;;;2.92;2.00;;;22.70;99.90;;;;;;4194851;28;20241;-84
2022/05/21 00:04:08;;;;;;;1.85;1.50;;;22.70;99.90;;;;;;4193923;28;20736;-83
2022/05/21 00:06:10;;;;;;;2.15;1.92;;;22.70;99.90;;;;;;4195157;28;20211;-84
2022/05/21 00:08:13;;;;;;;3.20;1.80;;;22.70;99.90;;;;;;4194034;28;20711;-84
2022/05/21 00:10:26;;;;;;;3.22;2.13;;;22.70;99.90;;;;;;4192914;28;20222;-83
2022/05/21 00:12:29;;;;;;;2.60;2.00;;;22.70;99.90;;;;;;4191302;28;20251;-83
2022/05/21 00:14:31;;;;;;;2.10;1.90;;;22.70;99.90;;;;;;4194373;28;20277;-84
2022/05/21 00:16:34;;;;;;;1.85;1.73;;;22.70;99.90;;;;;;4193407;28;20657;-83
2022/05/21 00:18:36;;;;;;;2.63;1.98;;;22.70;99.90;;;;;;4194613;28;20219;-83
2022/05/21 00:20:49;;;;;;;3.88;2.20;;;22.70;99.90;;;;;;4195169;28;20237;-84
2022/05/21 00:22:52;;;;;;;2.30;1.95;;;22.70;99.90;;;;;;4190937;28;20248;-83
2022/05/21 00:24:54;;;;;;;2.88;1.88;;;22.70;99.90;;;;;;4195201;28;20264;-84
2022/05/21 00:26:56;;;;;;;2.65;1.95;;;22.70;99.90;;;;;;4195555;28;20622;-84
2022/05/21 00:28:59;;;;;;;2.60;1.85;;;22.70;99.90;;;;;;4192100;28;20310;-83
2022/05/21 00:31:02;;;;;;;4.60;1.88;;;22.70;99.90;;;;;;4195471;28;20247;-84
2022/05/21 00:33:06;;;;;;;2.10;1.83;;;22.70;99.90;;;;;;4198545;28;20219;-85
2022/05/21 00:35:10;;;;;;;3.20;2.00;;;22.70;99.90;;;;;;4197574;28;20233;-85
2022/05/21 00:37:13;;;;;;;2.50;2.05;;;22.70;99.90;;;;;;4198087;28;20284;-84
2022/05/21 00:39:16;;;;;;;2.60;2.00;;;22.60;99.90;;;;;;4198623;28;20261;-84
2022/05/21 00:41:20;;;;;;;2.30;2.05;;;22.70;99.90;;;;;;4197477;28;20229;-85
2022/05/21 00:43:43;;;;;;;3.92;2.00;;;22.60;99.90;;;;;;4198012;28;20215;-84
2022/05/21 00:45:45;;;;;;;2.63;1.90;;;22.60;99.90;;;;;;4197065;28;20211;-84
2022/05/21 00:47:48;;;;;;;2.22;1.90;;;22.60;99.90;;;;;;4197667;28;20233;-84
2022/05/21 00:49:50;;;;;;;1.83;1.58;;;22.60;99.90;;;;;;4197379;28;20253;-85
2022/05/21 00:51:56;;;;;;;2.97;2.20;;;22.60;99.90;;;;;;4197716;28;20215;-83
2022/05/21 00:54:02;;;;;;;2.53;1.80;;;22.60;99.90;;;;;;4196038;28;20223;-84
2022/05/21 00:56:06;;;;;;;3.10;1.90;;;22.60;99.90;;;;;;4196518;28;20269;-83
2022/05/21 01:00:35;;;;;;;3.13;2.05;;;22.60;99.90;;;;;;4202289;28;20187;-84
2022/05/21 01:02:44;;;;;;;3.17;2.00;;;22.60;99.90;;;;;;4197946;28;20222;-84
2022/05/21 01:04:48;;;;;;;3.65;2.03;;;22.60;99.90;;;;;;4196815;28;20215;-84
2022/05/21 01:06:51;;;;;;;3.72;2.03;;;22.50;99.90;;;;;;4197635;28;20212;-83
2022/05/21 01:08:54;;;;;;;4.07;2.25;;;22.50;99.90;;;;;;4197045;28;20231;-84
2022/05/21 01:11:01;;;;;;;2.58;1.98;;;22.60;99.90;;;;;;4198057;28;20241;-84
2022/05/21 01:13:09;;;;;;;2.00;1.77;;;22.60;99.90;;;;;;4198006;28;20292;-84
2022/05/21 01:15:14;;;;;;;2.30;1.90;;;22.50;99.90;;;;;;4196173;28;20275;-84
2022/05/21 01:17:18;;;;;;;2.15;1.83;;;22.50;99.90;;;;;;4197933;28;20215;-84
2022/05/21 01:19:20;;;;;;;2.55;2.00;;;22.50;99.90;;;;;;4194245;28;20898;-84
2022/05/21 01:21:23;;;;;;;2.35;1.92;;;22.50;99.90;;;;;;4194982;28;20570;-83
2022/05/21 01:23:28;;;;;;;2.88;1.90;;;22.50;99.90;;;;;;4197764;28;20265;-83
2022/05/21 01:25:34;;;;;;;2.22;1.80;;;22.50;99.90;;;;;;4194924;28;20268;-84
2022/05/21 01:27:37;;;;;;;3.63;1.92;;;22.50;99.90;;;;;;4197611;28;20276;-83
2022/05/21 01:29:40;;;;;;;2.65;2.00;;;22.50;99.90;;;;;;4197102;28;20241;-84
2022/05/21 01:31:49;;;;;;;3.22;2.15;;;22.50;99.90;;;;;;4197655;28;20296;-84
2022/05/21 01:33:51;;;;;;;3.22;2.13;;;22.50;99.90;;;;;;4197584;28;20293;-84
2022/05/21 01:35:53;;;;;;;2.65;1.90;;;22.50;99.90;;;;;;4197782;28;20660;-83
2022/05/21 01:37:56;;;;;;;2.90;2.10;;;22.50;99.90;;;;;;4196961;28;20227;-84
2022/05/21 01:40:00;;;;;;;3.22;2.17;;;22.50;99.90;;;;;;4196155;28;20244;-84
2022/05/21 01:42:02;;;;;;;2.88;2.03;;;22.50;99.90;;;;;;4195946;28;20207;-84
2022/05/21 01:46:25;;;;;;;2.40;1.85;;;22.50;99.90;;;;;;4196961;28;20199;-83
2022/05/21 01:48:29;;;;;;;3.53;1.77;;;22.50;99.90;;;;;;4197330;28;20547;-83
2022/05/21 01:50:33;;;;;;;1.98;1.75;;;22.40;99.90;;;;;;4196442;28;20617;-84
2022/05/21 01:52:35;;;;;;;2.38;2.00;;;22.50;99.90;;;;;;4197227;28;20235;-83
2022/05/21 01:54:38;;;;;;;3.03;1.90;;;22.50;99.90;;;;;;4197640;28;20227;-84
2022/05/21 01:56:42;;;;;;;2.38;1.83;;;22.40;99.90;;;;;;4196442;28;20227;-84
2022/05/21 01:58:45;;;;;;;3.78;2.13;;;22.40;99.90;;;;;;4195704;28;20550;-83
2022/05/21 02:00:47;;;;;;;1.88;1.77;;;22.40;99.90;;;;;;4194966;28;20223;-84
2022/05/21 02:02:49;;;;;;;3.25;2.00;;;22.40;99.90;;;;;;4195385;28;20234;-84
2022/05/21 02:04:52;;;;;;;3.45;1.80;;;22.40;99.90;;;;;;4196787;28;20219;-84
2022/05/21 02:06:54;;;;;;;3.95;2.40;;;22.40;99.90;;;;;;4194543;28;20215;-84
2022/05/21 02:08:57;;;;;;;4.53;2.10;;;22.40;99.90;;;;;;4196596;28;20626;-84
2022/05/21 02:10:59;;;;;;;3.13;1.83;;;22.40;99.90;;;;;;4194795;28;20211;-85
2022/05/21 02:13:03;;;;;;;3.22;1.90;;;22.40;99.90;;;;;;4196333;28;20895;-85
2022/05/21 02:15:06;;;;;;;2.88;1.80;;;22.40;99.90;;;;;;4193904;28;20615;-83
2022/05/21 02:17:08;;;;;;;4.38;2.10;;;22.40;99.90;;;;;;4196081;28;21764;-84
2022/05/21 02:19:11;;;;;;;3.17;1.85;;;22.40;99.90;;;;;;4196837;28;20231;-84
2022/05/21 02:21:13;;;;;;;3.22;2.00;;;22.40;99.90;;;;;;4196766;28;20253;-83
2022/05/21 02:23:16;;;;;;;3.88;2.20;;;22.40;99.90;;;;;;4194287;28;20219;-84
2022/05/21 02:25:19;;;;;;;3.92;2.30;;;22.40;99.90;;;;;;4195523;28;20616;-84
2022/05/21 02:27:22;;;;;;;2.85;1.95;;;22.40;99.90;;;;;;4196243;28;20207;-84
2022/05/21 02:29:26;;;;;;;2.08;1.88;;;22.40;99.90;;;;;;4196466;28;20263;-83
2022/05/21 02:31:28;;;;;;;3.70;2.15;;;22.30;99.90;;;;;;4195489;28;20211;-84
2022/05/21 02:33:31;;;;;;;2.17;1.75;;;22.30;99.90;;;;;;4195695;28;20793;-84
2022/05/21 02:35:33;;;;;;;4.53;1.92;;;22.30;99.90;;;;;;4195711;28;20265;-84
2022/05/21 02:39:56;;;;;;;3.67;2.05;;;22.30;99.90;;;;;;4200726;28;20195;-83
2022/05/21 02:42:00;;;;;;;3.58;2.00;;;22.30;99.90;;;;;;4194451;28;21223;-84
2022/05/21 02:44:02;;;;;;;2.63;1.90;;;22.30;99.90;;;;;;4195140;28;20207;-85
2022/05/21 02:46:06;;;;;;;2.25;1.90;;;22.30;99.90;;;;;;4194393;28;20215;-84
2022/05/21 02:48:09;;;;;;;3.15;1.80;;;22.30;99.90;;;;;;4196245;28;20280;-84
2022/05/21 02:50:13;;;;;;;2.63;2.10;;;22.30;99.90;;;;;;4193768;28;20303;-84
2022/05/21 02:52:16;;;;;;;3.85;1.92;;;22.30;99.90;;;;;;4196293;28;20207;-84
2022/05/21 02:54:18;;;;;;;2.25;1.80;;;22.30;99.90;;;;;;4192621;28;20235;-84
2022/05/21 02:56:20;;;;;;;3.50;1.90;;;22.30;99.90;;;;;;4195725;28;20252;-84
2022/05/21 02:58:24;;;;;;;2.90;2.15;;;22.30;99.90;;;;;;4194914;28;20265;-84
2022/05/21 03:00:30;;;;;;;2.85;2.03;;;22.30;99.90;;;;;;4195943;28;20241;-83
2022/05/21 03:02:34;;;;;;;2.80;1.80;;;22.30;99.90;;;;;;4195450;28;20272;-84
2022/05/21 03:04:36;;;;;;;2.58;2.05;;;22.30;99.90;;;;;;4195921;28;20211;-84
2022/05/21 03:06:39;;;;;;;2.90;1.80;;;22.30;99.90;;;;;;4194771;28;20223;-85
2022/05/21 03:11:01;;;;;;;2.75;2.10;;;22.30;99.90;;;;;;4195363;28;20647;-85
2022/05/21 03:13:04;;;;;;;3.55;2.00;;;22.30;99.90;;;;;;4193637;28;20707;-85
2022/05/21 03:15:08;;;;;;;2.88;1.80;;;22.30;99.90;;;;;;4194811;28;20245;-84
2022/05/21 03:17:11;;;;;;;3.15;1.98;;;22.30;99.90;;;;;;4194919;28;20258;-85
2022/05/21 03:19:15;;;;;;;2.67;2.13;;;22.30;99.90;;;;;;4193909;28;20276;-85
2022/05/21 03:21:18;;;;;;;3.72;2.10;;;22.30;99.90;;;;;;4194910;28;20219;-85
2022/05/21 03:23:20;;;;;;;3.00;2.35;;;22.20;99.90;;;;;;4193834;28;20730;-85
2022/05/21 03:25:23;;;;;;;3.15;1.83;;;22.20;99.90;;;;;;4194067;28;20207;-85
2022/05/21 03:27:25;;;;;;;2.90;1.65;;;22.30;99.90;;;;;;4195398;28;20215;-85
2022/05/21 03:29:28;;;;;;;2.47;1.80;;;22.20;99.90;;;;;;4194175;28;20214;-84
2022/05/21 03:31:30;;;;;;;3.13;1.95;;;22.20;99.90;;;;;;4194923;28;20215;-84
2022/05/21 03:33:33;;;;;;;2.38;2.00;;;22.20;99.90;;;;;;4194258;28;20235;-84
2022/05/21 03:35:36;;;;;;;2.92;1.92;;;22.20;99.90;;;;;;4193967;28;20211;-83
2022/05/21 03:37:39;;;;;;;2.47;1.83;;;22.20;99.90;;;;;;4195066;28;20227;-84
2022/05/21 03:39:42;;;;;;;1.90;1.70;;;22.20;99.90;;;;;;4194996;28;20256;-84
2022/05/21 03:41:44;;;;;;;3.17;1.98;;;22.20;99.90;;;;;;4194739;28;20223;-84
2022/05/21 03:43:46;;;;;;;3.20;1.80;;;22.20;99.90;;;;;;4194575;28;20235;-84
2022/05/21 03:45:50;;;;;;;3.78;2.13;;;22.20;99.90;;;;;;4195063;28;20729;-84
2022/05/21 03:47:53;;;;;;;2.33;1.73;;;22.20;99.90;;;;;;4194033;28;20212;-83
2022/05/21 03:49:55;;;;;;;2.95;1.88;;;22.20;99.90;;;;;;4192705;28;20248;-84
2022/05/21 03:51:59;;;;;;;3.63;1.50;;;22.20;99.90;;;;;;4192806;28;20272;-84
2022/05/21 03:54:01;;;;;;;2.40;1.58;;;22.20;99.90;;;;;;4194406;28;20242;-84
2022/05/21 03:56:05;;;;;;;3.70;1.90;;;22.20;99.90;;;;;;4194005;28;20218;-84
2022/05/21 03:58:07;;;;;;;2.90;1.90;;;22.10;99.90;;;;;;4192825;28;20211;-84
2022/05/21 04:00:15;;;;;;;2.38;1.88;;;22.20;99.90;;;;;;4194008;28;20222;-85
2022/05/21 04:02:18;;;;;;;2.65;1.77;;;22.20;99.90;;;;;;4194570;28;20218;-85
2022/05/21 04:04:20;;;;;;;2.83;1.85;;;22.20;99.90;;;;;;4194680;28;20264;-85
2022/05/21 04:06:23;;;;;;;2.97;2.00;;;22.10;99.90;;;;;;4193851;28;20207;-85
2022/05/21 04:08:27;;;;;;;3.65;2.03;;;22.20;99.90;;;;;;4193470;28;20764;-85
2022/05/21 04:10:30;;;;;;;3.03;1.85;;;22.10;99.90;;;;;;4194320;28;20219;-85
2022/05/21 04:12:32;;;;;;;2.25;1.80;;;22.10;99.90;;;;;;4194331;28;20211;-85
2022/05/21 04:14:35;;;;;;;2.67;1.73;;;22.10;99.90;;;;;;4193974;28;20227;-85
2022/05/21 04:16:37;;;;;;;2.40;1.92;;;22.10;99.90;;;;;;4194212;28;20272;-85
2022/05/21 04:18:39;;;;;;;3.42;2.15;;;22.10;99.90;;;;;;4194309;28;20273;-86
2022/05/21 04:20:42;;;;;;;2.13;1.92;;;22.20;99.90;;;;;;4193920;28;20223;-84
2022/05/21 04:22:45;;;;;;;2.75;1.95;;;22.20;99.90;;;;;;4194101;28;20215;-84
2022/05/21 04:24:48;;;;;;;3.72;1.83;;;22.20;99.90;;;;;;4193918;28;20207;-84
2022/05/21 04:26:52;;;;;;;2.80;2.00;;;22.10;99.90;;;;;;4192656;28;20211;-84
2022/05/21 04:28:55;;;;;;;2.08;1.88;;;22.10;99.90;;;;;;4194070;28;20652;-84
2022/05/21 04:30:57;;;;;;;3.30;2.10;;;22.20;99.90;;;;;;4194734;28;20276;-84
2022/05/21 04:33:00;;;;;;;3.78;1.90;;;22.20;99.90;;;;;;4193485;28;20260;-84
2022/05/21 04:35:02;;;;;;;3.22;1.83;;;22.20;99.90;;;;;;4193727;28;20234;-84
2022/05/21 04:37:05;;;;;;;2.03;1.80;;;22.20;99.90;;;;;;4194762;28;21589;-84
2022/05/21 04:39:08;;;;;;;2.78;1.95;;;22.20;99.90;;;;;;4193614;28;20220;-83
2022/05/21 04:41:11;;;;;;;3.55;1.80;;;22.20;99.90;;;;;;4194362;28;20629;-84
2022/05/21 04:43:14;;;;;;;4.22;1.83;;;22.20;99.90;;;;;;4195211;28;20215;-84
2022/05/21 04:45:17;;;;;;;3.08;1.73;;;22.20;99.90;;;;;;4194224;28;20301;-85
2022/05/21 04:47:19;;;;;;;2.80;1.75;;;22.20;99.90;;;;;;4192864;28;20458;-85
2022/05/21 04:49:21;;;;;;;3.97;1.90;;;22.20;99.90;;;;;;4194568;28;20834;-85
2022/05/21 04:51:24;;;;;;;5.88;2.05;;;22.20;99.90;;;;;;4193778;28;20215;-85
2022/05/21 04:53:26;;;;;;;3.17;1.77;;;22.20;99.90;;;;;;4193659;28;20210;-85
2022/05/21 04:55:29;;;;;;;2.63;1.83;;;22.20;99.90;;;;;;4190622;28;20239;-85
2022/05/21 04:57:33;;;;;;;4.20;2.00;;;22.20;99.90;;;;;;4192760;28;20207;-85
2022/05/21 04:59:35;;;;;;;3.40;1.80;;;22.20;99.90;;;;;;4193656;28;20223;-85
2022/05/21 05:01:39;;;;;;;4.85;1.67;;;22.20;99.90;;;;;;4193743;28;20294;-85
2022/05/21 05:03:41;;;;;;;3.58;1.90;;;22.20;99.90;;;;;;4193136;28;20621;-85
2022/05/21 05:05:45;;;;;;;3.38;1.80;;;22.20;99.90;;;;;;4194032;28;20203;-85
2022/05/21 05:07:48;;;;;;;3.28;1.85;;;22.20;99.90;;;;;;4193675;28;20284;-85
2022/05/21 05:09:51;;;;;;;2.78;2.00;;;22.20;99.90;;;;;;4194017;28;20223;-85
2022/05/21 05:11:53;;;;;;;2.80;2.00;;;22.20;99.90;;;;;;4193410;28;20272;-85
2022/05/21 05:13:57;;;;;;;3.67;2.05;;;22.20;99.90;;;;;;4194035;28;20218;-84
2022/05/21 05:16:00;;;;;;;2.75;1.88;;;22.20;99.90;;;;;;4193990;28;20239;-84
2022/05/21 05:18:03;;;;;;;3.60;1.77;;;22.20;99.90;;;;;;4196181;28;20219;-84
2022/05/21 05:20:07;;;;;;;2.38;1.85;;;22.20;99.90;;;;;;4196996;28;20740;-84
2022/05/21 05:22:10;;;;;;;4.10;2.08;;;22.20;99.90;;;;;;4197047;28;20215;-85
2022/05/21 05:24:12;;;;;;;3.33;1.80;;;22.20;99.90;;;;;;4197231;28;20272;-84
2022/05/21 05:26:15;;;;;;;3.50;2.05;;;22.20;99.90;;;;;;4196356;28;20219;-84
2022/05/21 05:28:19;;;;;;;3.60;1.73;;;22.20;99.90;;;;;;4196922;28;20272;-84
2022/05/21 05:30:24;;;;;;;2.85;1.80;;;22.20;99.90;;;;;;4196779;28;20268;-85
2022/05/21 05:32:27;;;;;;;3.30;1.70;;;22.20;99.90;;;;;;4196306;28;20219;-84
2022/05/21 05:34:29;;;;;;;2.65;1.80;;;22.20;99.90;;;;;;4196716;28;20268;-84
2022/05/21 05:36:32;;;;;;;2.75;1.60;;;22.20;99.90;;;;;;4196667;28;20211;-84
2022/05/21 05:38:34;;;;;;;5.03;1.73;;;22.30;99.90;;;;;;4196501;28;20249;-84
2022/05/21 05:40:39;;;;;;;3.30;1.83;;;22.20;99.90;;;;;;4196835;28;20660;-84
2022/05/21 05:42:42;;;;;;;2.20;1.80;;;22.30;99.90;;;;;;4196507;28;20272;-84
2022/05/21 05:44:44;;;;;;;3.20;1.90;;;22.20;99.90;;;;;;4196899;28;20211;-84
2022/05/21 05:46:48;;;;;;;2.90;1.80;;;22.20;99.90;;;;;;4193595;28;20245;-84
2022/05/21 05:48:51;;;;;;;2.97;1.77;;;22.20;99.90;;;;;;4196625;28;20290;-84
2022/05/21 05:50:54;;;;;;;4.05;2.15;;;22.30;99.90;;;;;;4196622;28;20257;-85
2022/05/21 05:53:01;;;;;;;3.40;1.65;;;22.20;99.90;;;;;;4196344;28;20207;-85
2022/05/21 05:55:03;;;;;;;3.42;1.60;;;22.30;99.90;;;;;;4196172;28;20231;-85
2022/05/21 05:57:09;;;;;;;3.08;1.77;;;22.30;99.90;;;;;;4195337;28;20211;-85
2022/05/21 06:01:32;;;;;;;3.15;1.80;;;22.30;99.90;;;;;;4196306;28;20190;-84
2022/05/21 06:03:36;;;;;;;3.58;1.95;;;22.30;99.90;;;;;;4196131;28;20256;-84
2022/05/21 06:05:39;;;;;;;2.42;1.70;;;22.30;99.90;;;;;;4196591;28;20660;-84
2022/05/21 06:07:42;;;;;;;3.40;1.88;;;22.30;99.90;;;;;;4196244;28;20251;-85
2022/05/21 06:09:45;;;;;;;3.05;1.80;;;22.30;99.90;;;;;;4196243;28;20211;-84
2022/05/21 06:11:47;;;;;;;2.70;1.50;;;22.30;99.90;;;;;;4196303;28;20211;-85
2022/05/21 06:13:50;;;;;;;3.25;1.80;;;22.30;99.90;;;;;;4195374;28;21009;-84
2022/05/21 06:15:52;;;;;;;2.97;1.60;;;22.30;99.90;;;;;;4195324;28;20247;-84
2022/05/21 06:17:55;;;;;;;4.15;1.77;;;22.30;99.90;;;;;;4196105;28;20276;-84
2022/05/21 06:19:59;;;;;;;2.75;1.80;;;22.30;99.90;;;;;;4195770;28;20245;-84
2022/05/21 06:22:04;;;;;;;3.55;1.88;;;22.30;99.90;;;;;;4195802;28;20314;-85
2022/05/21 06:24:06;;;;;;;4.10;1.98;;;22.30;99.90;;;;;;4195738;28;20215;-85
2022/05/21 06:26:11;;;;;;;2.05;1.70;;;22.30;99.90;;;;;;4194448;28;20277;-85
2022/05/21 06:28:14;;;;;;;3.47;2.10;;;22.30;99.90;;;;;;4195527;28;20934;-84
2022/05/21 06:30:18;;;;;;;3.33;1.65;;;22.30;99.90;;;;;;4196685;28;20265;-84
2022/05/21 06:32:21;;;;;;;4.72;1.98;;;22.30;99.90;;;;;;4195633;28;20742;-84
2022/05/21 06:34:23;;;;;;;2.63;1.83;;;22.30;99.90;;;;;;4196446;28;20203;-84
2022/05/21 06:36:27;;;;;;;3.80;1.80;;;22.30;99.90;;;;;;4194216;28;20235;-84
2022/05/21 06:38:29;;;;;;;2.45;1.85;;;22.30;99.90;;;;;;4196115;28;20215;-84
2022/05/21 06:40:32;;;;;;;5.13;2.00;;;22.30;99.90;;;;;;4196319;28;20215;-84
2022/05/21 06:42:34;;;;;;;4.65;1.98;;;22.30;99.90;;;;;;4196835;28;20608;-84
2022/05/21 06:44:37;;;;;;;3.53;1.90;;;22.30;99.90;;;;;;4192052;28;20211;-85
2022/05/21 06:46:39;;;;;;;3.45;1.90;;;22.30;99.90;;;;;;4195951;28;20570;-85
2022/05/21 06:48:41;;;;;;;5.07;1.88;;;22.30;99.90;;;;;;4195554;28;20679;-84
2022/05/21 06:50:44;;;;;;;3.05;1.40;;;22.30;99.90;;;;;;4194504;28;20636;-85
2022/05/21 06:52:47;;;;;;;2.58;1.85;;;22.30;99.90;;;;;;4195481;28;20211;-84
2022/05/21 06:54:50;;;;;;;4.53;2.53;;;22.30;99.90;;;;;;4195253;28;20241;-85
2022/05/21 06:56:52;;;;;;;6.30;2.22;;;22.30;99.90;;;;;;4195757;28;20312;-84
2022/05/21 06:58:55;;;;;;;6.13;2.40;;;22.30;99.90;;;;;;4194721;28;20211;-84
2022/05/21 07:00:57;;;;;;;4.00;2.10;;;22.40;99.90;;;;;;4195596;28;20211;-84
2022/05/21 07:03:00;;;;;;;4.25;1.77;;;22.40;99.90;;;;;;4194163;28;20265;-84
2022/05/21 07:07:34;;;;;;;2.53;1.48;;;22.40;99.90;;;;;;4194888;28;20207;-85
2022/05/21 07:09:38;;;;;;;3.58;1.80;;;22.40;99.90;;;;;;4195520;28;20211;-85
2022/05/21 07:11:41;;;;;;;3.72;1.83;;;22.40;99.90;;;;;;4193286;28;20219;-85
2022/05/21 07:13:44;;;;;;;4.65;2.00;;;22.50;99.90;;;;;;4195583;28;20227;-83
2022/05/21 07:15:49;;;;;;;3.25;1.77;;;22.40;99.90;;;;;;4195153;28;20976;-84
2022/05/21 07:17:57;;;;;;;3.78;2.00;;;22.40;99.90;;;;;;4195896;28;20973;-84
2022/05/21 07:20:03;;;;;;;5.20;2.33;;;22.50;99.90;;;;;;4194813;28;20249;-84
2022/05/21 07:22:06;;;;;;;4.00;1.92;;;22.40;99.90;;;;;;4194549;28;20288;-84
2022/05/21 07:24:09;;;;;;;4.80;2.00;;;22.40;99.90;;;;;;4195002;28;21157;-84
2022/05/21 07:26:13;;;;;;;4.10;2.20;;;22.40;99.90;;;;;;4194826;28;20202;-84
2022/05/21 07:28:17;;;;;;;3.60;1.90;;;22.50;99.90;;;;;;4194944;28;20555;-84
2022/05/21 07:30:19;;;;;;;3.45;2.13;;;22.50;99.90;;;;;;4195014;28;20211;-85
2022/05/21 07:32:24;;;;;;;4.38;2.03;;;22.50;99.90;;;;;;4193618;28;20293;-85
2022/05/21 07:34:27;;;;;;;4.78;2.10;;;22.50;99.90;;;;;;4194986;28;20272;-85
2022/05/21 07:36:29;;;;;;;4.90;1.77;;;22.50;99.90;;;;;;4194430;28;20239;-84
2022/05/21 07:38:32;;;;;;;4.88;2.00;;;22.50;99.90;;;;;;4194676;28;20223;-84
2022/05/21 07:40:36;;;;;;;3.00;1.80;;;22.50;99.90;;;;;;4194276;28;20272;-84
2022/05/21 07:42:39;;;;;;;6.60;2.17;;;22.50;99.90;;;;;;4192836;28;20233;-84
2022/05/21 07:44:42;;;;;;;4.50;2.15;;;22.50;99.90;;;;;;4193261;28;20667;-84
2022/05/21 07:46:44;;;;;;;3.60;2.10;;;22.50;99.90;;;;;;4194284;28;20223;-84
2022/05/21 07:48:47;;;;;;;3.40;2.05;;;22.60;99.90;;;;;;4194939;28;20731;-85
2022/05/21 07:50:51;;;;;;;2.88;1.80;;;22.60;99.90;;;;;;4193756;28;20219;-85
2022/05/21 07:52:54;;;;;;;4.85;2.15;;;22.60;99.90;;;;;;4194234;28;20211;-85
2022/05/21 07:54:56;;;;;;;4.20;2.28;;;22.60;99.90;;;;;;4194256;28;20223;-84
2022/05/21 07:56:59;;;;;;;4.45;2.20;;;22.60;99.90;;;;;;4193979;28;20292;-84
2022/05/21 07:59:03;;;;;;;4.70;2.28;;;22.60;99.90;;;;;;4194729;28;20203;-85
2022/05/21 08:01:05;;;;;;;3.97;2.00;;;22.60;99.90;;;;;;4193397;28;20211;-85
2022/05/21 08:03:09;;;;;;;4.53;2.30;;;22.60;99.90;;;;;;4194192;28;20256;-85
2022/05/21 08:05:11;;;;;;;4.60;1.98;;;22.60;99.90;;;;;;4194425;28;20733;-84
2022/05/21 08:07:14;;;;;;;5.20;2.30;;;22.70;99.90;;;;;;4194209;28;20219;-85
2022/05/21 08:09:18;;;;;;;3.92;2.33;;;22.60;99.90;;;;;;4194119;28;20281;-84
2022/05/21 08:11:20;;;;;;;3.70;2.38;;;22.60;99.90;;;;;;4193596;28;20563;-84
2022/05/21 08:13:23;;;;;;;5.30;2.28;;;22.60;99.90;;;;;;4194354;28;20273;-85
2022/05/21 08:15:27;;;;;;;4.70;2.55;;;22.60;99.90;;;;;;4193670;28;20550;-84
2022/05/21 08:17:30;;;;;;;5.05;2.42;;;22.70;99.90;;;;;;4194251;28;20227;-86
2022/05/21 08:19:32;;;;;;;5.85;2.40;;;22.70;99.90;;;;;;4194203;28;20218;-85
2022/05/21 08:21:34;;;;;;;3.35;1.98;;;22.70;99.90;;;;;;4194444;28;20265;-85
2022/05/21 08:28:17;;;;;;;7.05;2.45;;;22.80;99.90;;;;;;4193914;28;20203;-86
2022/05/21 08:30:19;;;;;;;4.57;2.30;;;22.80;99.90;;;;;;4194140;28;20219;-85
2022/05/21 08:32:23;;;;;;;4.95;2.30;;;22.80;99.90;;;;;;4190697;28;20262;-86
2022/05/21 08:34:27;;;;;;;5.40;2.30;;;22.80;99.90;;;;;;4194680;28;20260;-85
2022/05/21 08:36:29;;;;;;;4.80;2.15;;;22.80;99.90;;;;;;4192573;28;20239;-85
2022/05/21 08:38:32;;;;;;;5.18;2.55;;;22.80;99.90;;;;;;4193386;28;20272;-85
2022/05/21 08:40:42;;;;;;;2.65;1.80;;;22.80;99.90;;;;;;4194363;28;20729;-86
2022/05/21 08:42:52;;;;;;;6.30;2.10;;;22.80;99.90;;;;;;4194031;28;20264;-86
2022/05/21 08:45:03;;;;;;;2.70;2.00;;;22.80;99.90;;;;;;4192954;28;20222;-84
2022/05/21 08:47:17;;;;;;;5.47;2.45;;;22.80;99.90;;;;;;4194280;28;20203;-85
2022/05/21 08:49:29;;;;;;;3.80;2.20;;;22.80;99.90;;;;;;4194280;28;20249;-84
2022/05/21 08:51:35;;;;;;;5.00;2.15;;;22.80;99.90;;;;;;4194264;28;20716;-84
2022/05/21 08:53:48;;;;;;;5.00;2.20;;;22.80;99.90;;;;;;4197366;28;20223;-84
2022/05/21 08:56:00;;;;;;;5.15;2.60;;;22.90;99.90;;;;;;4197871;28;20268;-84
2022/05/21 08:58:05;;;;;;;5.00;2.38;;;22.80;99.90;;;;;;4197643;28;20239;-84
2022/05/21 09:00:10;;;;;;;4.63;1.88;;;22.80;99.90;;;;;;4195363;28;20226;-84
2022/05/21 09:02:16;;;;;;;5.50;2.42;;;22.90;99.90;;;;;;4193752;28;20223;-85
2022/05/21 09:04:22;;;;;;;4.88;1.95;;;22.90;99.90;;;;;;4197469;28;20675;-84
2022/05/21 09:06:35;;;;;;;3.80;1.98;;;22.80;99.90;;;;;;4195324;28;20241;-84
2022/05/21 09:08:46;;;;;;;4.28;2.22;;;22.90;99.90;;;;;;4196531;28;20235;-84
2022/05/21 09:10:58;;;;;;;5.10;2.28;;;22.90;99.90;;;;;;4195162;28;20661;-84
2022/05/21 09:13:11;;;;;;;4.88;2.30;;;22.90;99.90;;;;;;4196446;28;20268;-84
2022/05/21 09:16:54;;;;;;;6.68;2.40;;;22.90;99.90;;;;;;4197484;28;20203;-85
2022/05/21 09:17:44;;;;;;;5.32;2.15;;;22.90;99.90;;;;;;4196417;28;20242;-86
2022/05/21 09:19:49;;;;;;;4.97;2.35;;;22.90;99.90;;;;;;4194944;28;20215;-85
2022/05/21 09:21:58;;;;;;;6.80;2.25;;;22.90;99.90;;;;;;4197327;28;20211;-85
2022/05/21 09:24:02;;;;;;;4.20;2.28;;;22.90;99.90;;;;;;4196392;28;20210;-85
2022/05/21 09:26:06;;;;;;;4.97;2.25;;;22.90;99.90;;;;;;4197181;28;20340;-84
2022/05/21 09:28:11;;;;;;;5.15;2.35;;;22.90;99.90;;;;;;4196422;28;20211;-84
2022/05/21 09:30:21;;;;;;;4.28;2.50;;;22.90;99.90;;;;;;4196539;28;20211;-85
2022/05/21 09:32:30;;;;;;;4.47;1.92;;;22.90;99.90;;;;;;4196494;28;20272;-84
2022/05/21 09:34:35;;;;;;;4.63;2.13;;;22.90;99.90;;;;;;4196381;28;20272;-85
2022/05/21 09:36:39;;;;;;;4.22;2.15;;;22.90;99.90;;;;;;4196020;28;20268;-84
2022/05/21 09:38:52;;;;;;;4.38;2.15;;;22.90;99.90;;;;;;4195524;28;20264;-84
2022/05/21 09:41:17;;;;;;;6.72;2.20;;;22.90;99.90;;;;;;4196370;28;20277;-85
2022/05/21 09:45:46;;;;;;;5.13;2.20;;;22.90;99.90;;;;;;4196401;28;20595;-85
2022/05/21 09:47:51;;;;;;;4.47;2.63;;;22.90;99.90;;;;;;4196126;28;20215;-85
2022/05/21 09:50:01;;;;;;;5.00;2.15;;;22.90;99.90;;;;;;4195417;28;20257;-85
2022/05/21 09:52:06;;;;;;;3.95;2.10;;;22.90;99.90;;;;;;4196114;28;20748;-84
2022/05/21 09:54:22;;;;;;;5.50;2.25;;;22.90;99.90;;;;;;4196775;28;20256;-84
2022/05/21 09:56:27;;;;;;;3.47;2.03;;;22.90;99.90;;;;;;4195247;28;20660;-84
2022/05/21 09:58:33;;;;;;;4.50;2.15;;;22.90;99.90;;;;;;4196102;28;20312;-85
2022/05/21 10:00:38;;;;;;;4.25;2.10;;;22.90;99.90;;;;;;4196660;28;20261;-84
2022/05/21 10:02:44;;;;;;;3.70;2.20;;;22.90;99.90;;;;;;4195778;28;20237;-84
2022/05/21 10:04:52;;;;;;;5.78;2.63;;;22.90;99.90;;;;;;4196343;28;20269;-84
2022/05/21 10:07:03;;;;;;;4.05;2.20;;;22.90;99.90;;;;;;4196284;28;20214;-85
2022/05/21 10:11:36;;;;;;;4.05;1.85;;;23.00;99.90;;;;;;4196381;28;20199;-84
2022/05/21 10:13:43;;;;;;;4.38;2.42;;;22.90;99.90;;;;;;4196061;28;20744;-84
2022/05/21 10:15:50;;;;;;;3.60;2.00;;;23.00;99.90;;;;;;4196084;28;20219;-84
2022/05/21 10:17:59;;;;;;;5.28;2.22;;;23.00;99.90;;;;;;4195319;28;20234;-85
2022/05/21 10:20:11;;;;;;;4.53;2.08;;;23.00;99.90;;;;;;4194466;28;20218;-84
2022/05/21 10:22:27;;;;;;;4.22;2.45;;;23.00;99.90;;;;;;4195256;28;20976;-84
2022/05/21 10:24:43;;;;;;;6.00;2.25;;;23.00;99.90;;;;;;4196064;28;20210;-84
2022/05/21 10:26:59;;;;;;;4.30;2.50;;;23.00;99.90;;;;;;4195776;28;20211;-86
2022/05/21 10:29:16;;;;;;;5.78;2.13;;;23.00;99.90;;;;;;4194496;28;20223;-85
2022/05/21 10:31:40;;;;;;;4.70;2.10;;;23.00;99.90;;;;;;4194268;28;20199;-85
2022/05/21 10:33:56;;;;;;;4.68;1.75;;;23.00;99.90;;;;;;4194966;28;20211;-84
2022/05/21 10:36:18;;;;;;;4.90;2.13;;;23.00;99.90;;;;;;4195906;28;20274;-84
2022/05/21 10:38:36;;;;;;;3.65;1.90;;;23.00;99.90;;;;;;4194911;28;20293;-84
2022/05/21 10:40:46;;;;;;;5.03;2.03;;;23.00;99.90;;;;;;4195591;28;20261;-83
2022/05/21 10:43:06;;;;;;;4.25;2.22;;;23.00;99.90;;;;;;4195251;28;20284;-84
2022/05/21 10:45:20;;;;;;;3.13;1.83;;;23.00;99.90;;;;;;4194913;28;20546;-78
2022/05/21 10:47:35;;;;;;;5.07;2.17;;;23.00;99.90;;;;;;4194945;28;20280;-81
2022/05/21 10:50:06;;;;;;;6.60;2.17;;;23.00;99.90;;;;;;4193691;28;20207;-81
2022/05/21 10:52:15;;;;;;;3.05;1.70;;;23.00;99.90;;;;;;4194898;28;20215;-81
2022/05/21 10:54:46;;;;;;;6.15;2.03;;;23.00;99.90;;;;;;4192931;28;20215;-84
2022/05/21 10:57:01;;;;;;;5.47;1.90;;;23.10;99.90;;;;;;4195270;28;20940;-81
2022/05/21 10:59:29;;;;;;;6.90;2.30;;;23.10;99.90;;;;;;4194784;28;20234;-82
2022/05/21 11:01:40;;;;;;;5.75;2.08;;;23.10;99.90;;;;;;4194262;28;20260;-81
2022/05/21 11:04:06;;;;;;;8.45;2.33;;;23.00;99.90;;;;;;4193359;28;20264;-81
2022/05/21 11:06:25;;;;;;;4.68;1.98;;;23.10;99.90;;;;;;4194053;28;20261;-81
2022/05/21 11:08:35;;;;;;;5.78;2.10;;;23.00;99.90;;;;;;4194997;28;20238;-81
2022/05/21 11:10:44;;;;;;;5.57;2.17;;;23.00;99.90;;;;;;4194839;28;21017;-81
2022/05/21 11:12:54;;;;;;;6.85;2.22;;;23.10;99.90;;;;;;4194295;28;20215;-81
2022/05/21 11:15:02;;;;;;;5.85;2.17;;;23.10;99.90;;;;;;4193987;28;20638;-81